Time;durP1;ratioP1;P1;durP2;ratioP2;P2;SDS_P1;SDS_P2;PMS_P1;PMS_P2;Temp;Humidity;BMP_temperature;BMP_pressure;BME280_temperature;BME280_humidity;BME280_pressure;Samples;Min_cycle;Max_cycle;Signal;HPM_P1;HPM_P2
2023/12/23 00:02:21;;;;;;;1.73;0.60;;;;;;;;;;5043141;28;20045;-66
2023/12/23 00:04:47;;;;;;;2.63;0.60;;;;;;;;;;5041090;28;20052;-66
2023/12/23 00:07:14;;;;;;;5.22;1.13;;;;;;;;;;5041757;28;20041;-67
2023/12/23 00:09:41;;;;;;;1.80;1.00;;;;;;;;;;5038220;28;20301;-66
2023/12/23 00:12:10;;;;;;;3.28;0.43;;;;;;;;;;5043808;28;20657;-66
2023/12/23 00:14:36;;;;;;;0.70;0.50;;;;;;;;;;5041034;28;20041;-66
2023/12/23 00:17:02;;;;;;;1.27;0.50;;;;;;;;;;5038520;28;20166;-66
2023/12/23 00:19:29;;;;;;;2.00;0.40;;;;;;;;;;5040928;28;20178;-66
2023/12/23 00:21:55;;;;;;;0.85;0.40;;;;;;;;;;5055140;28;20048;-66
2023/12/23 00:24:21;;;;;;;1.10;0.43;;;;;;;;;;5038111;28;20044;-67
2023/12/23 00:26:47;;;;;;;2.03;0.73;;;;;;;;;;5041151;28;21586;-66
2023/12/23 00:29:13;;;;;;;1.65;0.40;;;;;;;;;;5043572;28;20047;-66
2023/12/23 00:31:39;;;;;;;2.78;0.47;;;;;;;;;;5040597;28;20076;-66
2023/12/23 00:34:05;;;;;;;0.93;0.32;;;;;;;;;;5040558;28;20033;-66
2023/12/23 00:36:31;;;;;;;0.52;0.22;;;;;;;;;;5039877;28;20049;-66
2023/12/23 00:38:57;;;;;;;1.50;0.43;;;;;;;;;;5040260;28;20400;-66
2023/12/23 00:41:23;;;;;;;1.75;0.40;;;;;;;;;;5039737;28;20048;-66
2023/12/23 00:43:49;;;;;;;0.57;0.32;;;;;;;;;;5038842;28;20045;-66
2023/12/23 00:46:16;;;;;;;0.85;0.43;;;;;;;;;;5038046;28;20347;-66
2023/12/23 00:48:42;;;;;;;1.83;0.60;;;;;;;;;;5036998;28;20056;-66
2023/12/23 00:51:09;;;;;;;2.03;0.40;;;;;;;;;;5037541;28;20048;-66
2023/12/23 00:53:35;;;;;;;0.73;0.30;;;;;;;;;;5037591;28;20045;-66
2023/12/23 00:56:01;;;;;;;0.63;0.35;;;;;;;;;;5033588;28;20049;-66
2023/12/23 00:58:27;;;;;;;0.40;0.20;;;;;;;;;;5034875;28;20771;-66
2023/12/23 01:00:53;;;;;;;1.88;0.30;;;;;;;;;;5035512;28;20109;-66
2023/12/23 01:03:19;;;;;;;3.33;1.20;;;;;;;;;;5033463;28;20179;-67
2023/12/23 01:05:45;;;;;;;0.80;0.30;;;;;;;;;;5033271;28;20067;-66
2023/12/23 01:08:11;;;;;;;1.15;0.70;;;;;;;;;;5033372;28;20045;-66
2023/12/23 01:10:37;;;;;;;2.90;0.70;;;;;;;;;;5038523;28;20072;-66
2023/12/23 01:13:03;;;;;;;2.40;1.00;;;;;;;;;;5039132;28;21599;-66
2023/12/23 01:15:29;;;;;;;2.47;1.30;;;;;;;;;;5040193;28;20060;-66
2023/12/23 01:17:55;;;;;;;1.63;0.63;;;;;;;;;;5038257;28;20080;-66
2023/12/23 01:20:21;;;;;;;3.63;0.80;;;;;;;;;;5041289;28;20048;-67
2023/12/23 01:22:47;;;;;;;4.05;1.40;;;;;;;;;;5040206;28;20032;-66
2023/12/23 01:25:14;;;;;;;2.55;0.73;;;;;;;;;;5038428;28;20552;-66
2023/12/23 01:27:39;;;;;;;3.15;0.90;;;;;;;;;;5039991;28;20404;-66
2023/12/23 01:30:06;;;;;;;2.72;0.70;;;;;;;;;;5038582;28;20032;-66
2023/12/23 01:32:32;;;;;;;2.80;0.93;;;;;;;;;;5036584;28;20114;-66
2023/12/23 01:34:58;;;;;;;4.05;0.55;;;;;;;;;;5039131;28;20045;-66
2023/12/23 01:37:24;;;;;;;3.60;1.10;;;;;;;;;;5040941;28;20393;-66
2023/12/23 01:39:50;;;;;;;1.13;0.55;;;;;;;;;;5038740;28;20133;-67
2023/12/23 01:42:16;;;;;;;2.03;0.60;;;;;;;;;;5042604;28;20507;-66
2023/12/23 01:44:42;;;;;;;8.77;1.10;;;;;;;;;;5040332;28;20063;-66
2023/12/23 01:47:08;;;;;;;1.85;0.52;;;;;;;;;;5037944;28;20049;-66
2023/12/23 01:49:35;;;;;;;3.55;0.57;;;;;;;;;;5035239;28;20195;-66
2023/12/23 01:52:02;;;;;;;3.45;0.85;;;;;;;;;;5039083;28;20056;-66
2023/12/23 01:54:28;;;;;;;3.13;0.47;;;;;;;;;;5040074;28;20048;-66
2023/12/23 01:56:55;;;;;;;3.10;0.85;;;;;;;;;;5036482;28;20505;-66
2023/12/23 01:59:21;;;;;;;6.05;0.85;;;;;;;;;;5036658;28;20037;-67
2023/12/23 02:01:48;;;;;;;2.95;0.80;;;;;;;;;;5034717;28;20803;-66
2023/12/23 02:04:15;;;;;;;1.42;0.30;;;;;;;;;;5034986;28;20370;-66
2023/12/23 02:06:41;;;;;;;1.38;0.38;;;;;;;;;;5041266;28;20507;-66
2023/12/23 02:09:07;;;;;;;2.17;0.57;;;;;;;;;;5038657;28;20116;-67
2023/12/23 02:11:41;;;;;;;0.60;0.30;;;;;;;;;;5035664;28;20048;-66
2023/12/23 02:14:13;;;;;;;2.03;0.40;;;;;;;;;;5039856;28;20032;-66
2023/12/23 02:16:39;;;;;;;4.70;0.70;;;;;;;;;;5036151;28;20086;-66
2023/12/23 02:19:05;;;;;;;1.70;0.50;;;;;;;;;;5041207;28;20449;-66
2023/12/23 02:21:31;;;;;;;3.00;0.80;;;;;;;;;;5034679;28;20491;-66
2023/12/23 02:23:57;;;;;;;0.85;0.47;;;;;;;;;;5041567;28;20095;-66
2023/12/23 02:26:25;;;;;;;1.05;0.70;;;;;;;;;;5039295;28;20493;-66
2023/12/23 02:28:52;;;;;;;0.77;0.43;;;;;;;;;;5035181;28;20079;-66
2023/12/23 02:31:21;;;;;;;2.40;0.60;;;;;;;;;;5037871;28;20507;-66
2023/12/23 02:33:48;;;;;;;4.65;0.95;;;;;;;;;;5037773;28;20033;-66
2023/12/23 02:36:14;;;;;;;1.83;0.73;;;;;;;;;;5040937;28;20049;-66
2023/12/23 02:38:40;;;;;;;0.63;0.43;;;;;;;;;;5038046;28;20516;-66
2023/12/23 02:41:06;;;;;;;5.00;0.47;;;;;;;;;;5034766;28;20041;-66
2023/12/23 02:43:32;;;;;;;2.58;0.73;;;;;;;;;;5038504;28;20037;-66
2023/12/23 02:45:58;;;;;;;2.10;0.60;;;;;;;;;;5034715;28;20037;-66
2023/12/23 02:48:24;;;;;;;2.75;0.45;;;;;;;;;;5038188;28;20045;-66
2023/12/23 02:50:50;;;;;;;1.58;0.45;;;;;;;;;;5041052;28;20503;-66
2023/12/23 02:53:16;;;;;;;2.00;0.73;;;;;;;;;;5038616;28;20057;-66
2023/12/23 02:55:42;;;;;;;1.33;0.55;;;;;;;;;;5037904;28;20124;-66
2023/12/23 02:58:09;;;;;;;2.63;0.75;;;;;;;;;;5036233;28;20044;-66
2023/12/23 03:00:35;;;;;;;1.27;0.40;;;;;;;;;;5037252;28;20507;-66
2023/12/23 03:03:01;;;;;;;2.30;0.50;;;;;;;;;;5035443;28;20371;-66
2023/12/23 03:05:27;;;;;;;1.13;0.40;;;;;;;;;;5032248;28;20045;-66
2023/12/23 03:07:53;;;;;;;1.27;0.20;;;;;;;;;;5038320;28;20087;-66
2023/12/23 03:10:19;;;;;;;1.65;0.40;;;;;;;;;;5035144;28;20087;-66
2023/12/23 03:12:45;;;;;;;0.85;0.32;;;;;;;;;;5037003;28;20621;-66
2023/12/23 03:15:11;;;;;;;1.65;0.32;;;;;;;;;;5034603;28;20049;-66
2023/12/23 03:17:37;;;;;;;4.72;0.70;;;;;;;;;;5033224;28;20041;-66
2023/12/23 03:20:04;;;;;;;3.67;0.47;;;;;;;;;;5038397;28;20094;-66
2023/12/23 03:22:30;;;;;;;3.00;0.60;;;;;;;;;;5037100;28;20131;-66
2023/12/23 03:24:56;;;;;;;2.67;0.63;;;;;;;;;;5035339;28;20042;-66
2023/12/23 03:27:22;;;;;;;1.30;0.20;;;;;;;;;;5036242;28;20067;-66
2023/12/23 03:29:48;;;;;;;2.35;0.50;;;;;;;;;;5034402;28;20041;-66
2023/12/23 03:32:14;;;;;;;2.30;0.45;;;;;;;;;;5035596;28;20061;-67
2023/12/23 03:34:41;;;;;;;1.10;0.30;;;;;;;;;;5035235;28;20147;-67
2023/12/23 03:37:07;;;;;;;0.38;0.10;;;;;;;;;;5037412;28;20048;-66
2023/12/23 03:39:33;;;;;;;0.65;0.30;;;;;;;;;;5039332;28;20378;-66
2023/12/23 03:41:59;;;;;;;3.28;0.50;;;;;;;;;;5037946;28;20039;-67
2023/12/23 03:44:25;;;;;;;1.05;0.22;;;;;;;;;;5037824;28;20029;-67
2023/12/23 03:46:51;;;;;;;1.08;0.50;;;;;;;;;;5065859;28;20505;-67
2023/12/23 03:49:18;;;;;;;0.75;0.30;;;;;;;;;;5034500;28;20136;-67
2023/12/23 03:51:44;;;;;;;2.00;0.20;;;;;;;;;;5039559;28;20055;-67
2023/12/23 03:54:10;;;;;;;0.20;0.20;;;;;;;;;;5037106;28;20041;-67
2023/12/23 03:56:35;;;;;;;1.27;0.30;;;;;;;;;;5036508;28;20036;-67
2023/12/23 03:59:02;;;;;;;0.80;0.10;;;;;;;;;;5038716;28;20045;-66
2023/12/23 04:01:28;;;;;;;0.98;0.25;;;;;;;;;;5037093;28;20537;-66
2023/12/23 04:03:54;;;;;;;1.10;0.30;;;;;;;;;;5037225;28;20119;-66
2023/12/23 04:06:20;;;;;;;0.32;0.10;;;;;;;;;;5039268;28;20044;-66
2023/12/23 04:08:45;;;;;;;1.35;0.50;;;;;;;;;;5038706;28;20500;-66
2023/12/23 04:11:11;;;;;;;0.85;0.20;;;;;;;;;;5035115;28;20041;-66
2023/12/23 04:13:38;;;;;;;0.00;0.00;;;;;;;;;;5036368;28;20033;-66
2023/12/23 04:16:05;;;;;;;0.43;0.20;;;;;;;;;;5034607;28;20056;-66
2023/12/23 04:18:31;;;;;;;0.10;0.10;;;;;;;;;;5030399;28;20045;-66
2023/12/23 04:20:57;;;;;;;0.10;0.00;;;;;;;;;;5036190;28;20040;-66
2023/12/23 04:23:24;;;;;;;0.00;0.00;;;;;;;;;;5033245;28;20051;-66
2023/12/23 04:25:50;;;;;;;0.10;0.10;;;;;;;;;;5035018;28;20095;-66
2023/12/23 04:28:20;;;;;;;0.28;0.00;;;;;;;;;;5035900;28;20049;-66
2023/12/23 04:30:47;;;;;;;0.00;0.00;;;;;;;;;;5033372;28;20048;-66
2023/12/23 04:33:13;;;;;;;0.10;0.10;;;;;;;;;;5034453;28;20068;-66
2023/12/23 04:35:38;;;;;;;0.10;0.00;;;;;;;;;;5036536;28;20482;-66
2023/12/23 04:38:06;;;;;;;0.00;0.00;;;;;;;;;;5033425;28;20049;-66
2023/12/23 04:40:32;;;;;;;0.10;0.10;;;;;;;;;;5034549;28;20421;-66
2023/12/23 04:42:58;;;;;;;0.10;0.00;;;;;;;;;;5031348;28;20030;-66
2023/12/23 04:45:24;;;;;;;0.00;0.00;;;;;;;;;;5037540;28;20041;-66
2023/12/23 04:47:50;;;;;;;1.10;0.00;;;;;;;;;;5037268;28;20040;-66
2023/12/23 04:50:17;;;;;;;0.00;0.00;;;;;;;;;;5035828;28;20061;-66
2023/12/23 04:52:43;;;;;;;0.08;0.00;;;;;;;;;;5036564;28;20046;-66
2023/12/23 04:55:09;;;;;;;0.00;0.00;;;;;;;;;;5036240;28;20051;-66
2023/12/23 04:57:35;;;;;;;0.10;0.00;;;;;;;;;;5035818;28;20072;-66
2023/12/23 05:00:05;;;;;;;0.00;0.00;;;;;;;;;;5034870;28;20033;-66
2023/12/23 05:02:31;;;;;;;0.08;0.00;;;;;;;;;;5035874;28;20069;-66
2023/12/23 05:04:58;;;;;;;0.00;0.00;;;;;;;;;;5033247;28;20053;-66
2023/12/23 05:07:24;;;;;;;0.10;0.10;;;;;;;;;;5037269;28;20595;-66
2023/12/23 05:09:50;;;;;;;0.10;0.00;;;;;;;;;;5034502;28;20044;-66
2023/12/23 05:12:16;;;;;;;0.00;0.00;;;;;;;;;;5033426;28;20045;-66
2023/12/23 05:14:42;;;;;;;0.32;0.00;;;;;;;;;;5036075;28;20088;-67
2023/12/23 05:17:08;;;;;;;0.03;0.00;;;;;;;;;;5038209;28;20049;-66
2023/12/23 05:19:34;;;;;;;0.03;0.03;;;;;;;;;;5030123;28;20048;-66
2023/12/23 05:22:00;;;;;;;0.00;0.00;;;;;;;;;;5034756;28;20043;-66
2023/12/23 05:24:26;;;;;;;0.00;0.00;;;;;;;;;;5033794;28;20065;-66
2023/12/23 05:26:52;;;;;;;0.20;0.00;;;;;;;;;;5034109;28;20037;-66
2023/12/23 05:29:18;;;;;;;0.25;0.03;;;;;;;;;;5034430;28;20045;-66
2023/12/23 05:31:44;;;;;;;0.00;0.00;;;;;;;;;;5031416;28;20037;-66
2023/12/23 05:34:10;;;;;;;0.00;0.00;;;;;;;;;;5035142;28;21681;-66
2023/12/23 05:36:36;;;;;;;0.00;0.00;;;;;;;;;;5036889;28;20041;-66
2023/12/23 05:39:02;;;;;;;0.10;0.10;;;;;;;;;;5034718;28;20094;-66
2023/12/23 05:41:28;;;;;;;0.22;0.10;;;;;;;;;;5034744;28;20029;-66
2023/12/23 05:43:54;;;;;;;0.75;0.10;;;;;;;;;;5061086;28;20045;-66
2023/12/23 05:46:20;;;;;;;0.10;0.10;;;;;;;;;;5034306;28;20080;-66
2023/12/23 05:48:46;;;;;;;0.03;0.00;;;;;;;;;;5030864;28;20062;-66
2023/12/23 05:51:12;;;;;;;0.10;0.10;;;;;;;;;;5036678;28;20868;-67
2023/12/23 05:53:38;;;;;;;0.13;0.13;;;;;;;;;;5032490;28;20065;-66
2023/12/23 05:56:04;;;;;;;0.13;0.00;;;;;;;;;;5035147;28;20489;-66
2023/12/23 05:58:31;;;;;;;0.30;0.10;;;;;;;;;;5037366;28;20374;-66
2023/12/23 06:00:57;;;;;;;0.00;0.00;;;;;;;;;;5067394;28;20045;-66
2023/12/23 06:03:23;;;;;;;0.00;0.00;;;;;;;;;;5043666;28;20033;-66
2023/12/23 06:05:49;;;;;;;0.05;0.00;;;;;;;;;;5037752;28;20341;-66
2023/12/23 06:08:15;;;;;;;0.05;0.05;;;;;;;;;;5041329;28;20052;-66
2023/12/23 06:10:41;;;;;;;0.20;0.10;;;;;;;;;;5037393;28;20040;-66
2023/12/23 06:13:08;;;;;;;0.68;0.20;;;;;;;;;;5039882;28;20084;-66
2023/12/23 06:15:34;;;;;;;0.03;0.00;;;;;;;;;;5034541;28;20041;-66
2023/12/23 06:18:00;;;;;;;0.05;0.00;;;;;;;;;;5037428;28;20030;-66
2023/12/23 06:20:26;;;;;;;0.00;0.00;;;;;;;;;;5038856;28;20147;-66
2023/12/23 06:22:52;;;;;;;0.45;0.00;;;;;;;;;;5038136;28;20043;-66
2023/12/23 06:25:18;;;;;;;0.20;0.20;;;;;;;;;;5038276;28;20080;-66
2023/12/23 06:27:44;;;;;;;0.10;0.08;;;;;;;;;;5035790;28;20077;-66
2023/12/23 06:30:10;;;;;;;0.10;0.10;;;;;;;;;;5035723;28;20044;-66
2023/12/23 06:32:37;;;;;;;0.03;0.00;;;;;;;;;;5038486;28;20120;-66
2023/12/23 06:35:03;;;;;;;0.10;0.00;;;;;;;;;;5035423;28;20486;-66
2023/12/23 06:37:29;;;;;;;0.10;0.00;;;;;;;;;;5037005;28;20120;-66
2023/12/23 06:39:55;;;;;;;0.05;0.05;;;;;;;;;;5037591;28;20119;-66
2023/12/23 06:42:21;;;;;;;0.00;0.00;;;;;;;;;;5038385;28;20449;-66
2023/12/23 06:44:47;;;;;;;0.10;0.03;;;;;;;;;;5039075;28;20033;-66
2023/12/23 06:47:13;;;;;;;0.00;0.00;;;;;;;;;;5035651;28;20056;-66
2023/12/23 06:49:39;;;;;;;0.10;0.03;;;;;;;;;;5037811;28;20171;-66
2023/12/23 06:52:06;;;;;;;0.10;0.10;;;;;;;;;;5039132;28;20140;-66
2023/12/23 06:54:32;;;;;;;0.00;0.00;;;;;;;;;;5036550;28;20116;-66
2023/12/23 06:56:58;;;;;;;0.10;0.10;;;;;;;;;;5035602;28;20049;-66
2023/12/23 06:59:24;;;;;;;0.00;0.00;;;;;;;;;;5037916;28;20060;-66
2023/12/23 07:01:50;;;;;;;0.00;0.00;;;;;;;;;;5037108;28;20120;-66
2023/12/23 07:04:16;;;;;;;0.05;0.05;;;;;;;;;;5039941;28;20033;-66
2023/12/23 07:06:42;;;;;;;0.00;0.00;;;;;;;;;;5036386;28;20040;-66
2023/12/23 07:09:09;;;;;;;0.75;0.00;;;;;;;;;;5038461;28;20184;-66
2023/12/23 07:11:35;;;;;;;0.10;0.10;;;;;;;;;;5037841;28;20051;-66
2023/12/23 07:14:01;;;;;;;0.00;0.00;;;;;;;;;;5036073;28;20119;-66
2023/12/23 07:16:27;;;;;;;0.00;0.00;;;;;;;;;;5038407;28;20048;-66
2023/12/23 07:18:53;;;;;;;0.00;0.00;;;;;;;;;;5035408;28;20051;-66
2023/12/23 07:21:19;;;;;;;0.13;0.10;;;;;;;;;;5033952;28;20041;-66
2023/12/23 07:23:45;;;;;;;0.00;0.00;;;;;;;;;;5036314;28;20090;-66
2023/12/23 07:26:12;;;;;;;0.00;0.00;;;;;;;;;;5037943;28;20110;-67
2023/12/23 07:28:38;;;;;;;0.00;0.00;;;;;;;;;;5035014;28;20118;-67
2023/12/23 07:31:04;;;;;;;0.00;0.00;;;;;;;;;;5036288;28;20045;-66
2023/12/23 07:33:30;;;;;;;0.00;0.00;;;;;;;;;;5038212;28;20041;-66
2023/12/23 07:35:57;;;;;;;0.00;0.00;;;;;;;;;;5036128;28;20386;-66
2023/12/23 07:38:23;;;;;;;0.10;0.00;;;;;;;;;;5035912;28;20387;-66
2023/12/23 07:40:49;;;;;;;0.03;0.03;;;;;;;;;;5035322;28;20980;-66
2023/12/23 07:43:15;;;;;;;0.00;0.00;;;;;;;;;;5041422;28;20120;-66
2023/12/23 07:45:42;;;;;;;0.00;0.00;;;;;;;;;;5035893;28;20121;-66
2023/12/23 07:48:08;;;;;;;0.00;0.00;;;;;;;;;;5039686;28;20099;-66
2023/12/23 07:50:34;;;;;;;0.20;0.08;;;;;;;;;;5037162;28;20053;-66
2023/12/23 07:53:00;;;;;;;0.00;0.00;;;;;;;;;;5038988;28;20162;-66
2023/12/23 07:55:26;;;;;;;0.00;0.00;;;;;;;;;;5034455;28;20120;-67
2023/12/23 07:57:52;;;;;;;0.00;0.00;;;;;;;;;;5036113;28;20769;-67
2023/12/23 08:00:18;;;;;;;0.10;0.10;;;;;;;;;;5033355;28;20040;-66
2023/12/23 08:02:44;;;;;;;0.00;0.00;;;;;;;;;;5036268;28;20215;-66
2023/12/23 08:05:10;;;;;;;0.00;0.00;;;;;;;;;;5036465;28;20041;-66
2023/12/23 08:07:36;;;;;;;0.00;0.00;;;;;;;;;;5040130;28;20183;-66
2023/12/23 08:10:04;;;;;;;0.00;0.00;;;;;;;;;;5034040;28;20124;-66
2023/12/23 08:12:30;;;;;;;0.00;0.00;;;;;;;;;;5037106;28;20162;-66
2023/12/23 08:14:56;;;;;;;0.00;0.00;;;;;;;;;;5036173;28;20118;-66
2023/12/23 08:17:22;;;;;;;0.08;0.00;;;;;;;;;;5031415;28;20095;-66
2023/12/23 08:19:48;;;;;;;0.00;0.00;;;;;;;;;;5034686;28;20037;-66
2023/12/23 08:22:14;;;;;;;0.00;0.00;;;;;;;;;;5035538;28;20051;-66
2023/12/23 08:24:40;;;;;;;0.00;0.00;;;;;;;;;;5032254;28;20037;-66
2023/12/23 08:27:07;;;;;;;0.00;0.00;;;;;;;;;;5034997;28;20086;-66
2023/12/23 08:29:33;;;;;;;0.00;0.00;;;;;;;;;;5033502;28;20045;-66
2023/12/23 08:31:59;;;;;;;0.10;0.00;;;;;;;;;;5034525;28;20055;-66
2023/12/23 08:34:25;;;;;;;0.00;0.00;;;;;;;;;;5036747;28;20128;-66
2023/12/23 08:36:51;;;;;;;0.00;0.00;;;;;;;;;;5034965;28;20195;-66
2023/12/23 08:39:17;;;;;;;0.03;0.00;;;;;;;;;;5034517;28;20044;-66
2023/12/23 08:41:43;;;;;;;0.00;0.00;;;;;;;;;;5033293;28;20041;-66
2023/12/23 08:44:09;;;;;;;0.00;0.00;;;;;;;;;;5031548;28;20037;-67
2023/12/23 08:46:36;;;;;;;0.00;0.00;;;;;;;;;;5036151;28;20055;-67
2023/12/23 08:49:02;;;;;;;0.00;0.00;;;;;;;;;;5037362;28;20107;-66
2023/12/23 08:51:31;;;;;;;0.00;0.00;;;;;;;;;;5034361;28;20052;-66
2023/12/23 08:53:57;;;;;;;0.10;0.10;;;;;;;;;;5034672;28;20041;-66
2023/12/23 08:56:24;;;;;;;0.10;0.00;;;;;;;;;;5035669;28;20045;-66
2023/12/23 08:58:50;;;;;;;0.00;0.00;;;;;;;;;;5035582;28;20076;-66
2023/12/23 09:01:16;;;;;;;0.00;0.00;;;;;;;;;;5035440;28;20037;-66
2023/12/23 09:03:41;;;;;;;0.10;0.10;;;;;;;;;;5033830;28;20516;-66
2023/12/23 09:06:07;;;;;;;0.10;0.10;;;;;;;;;;5035365;28;20043;-66
2023/12/23 09:08:34;;;;;;;0.20;0.03;;;;;;;;;;5033760;28;20046;-66
2023/12/23 09:11:04;;;;;;;0.10;0.10;;;;;;;;;;5036192;28;20038;-67
2023/12/23 09:13:30;;;;;;;0.00;0.00;;;;;;;;;;5036341;28;20405;-66
2023/12/23 09:15:56;;;;;;;0.00;0.00;;;;;;;;;;5035910;28;20045;-64
2023/12/23 09:18:22;;;;;;;0.00;0.00;;;;;;;;;;5043707;28;20044;-63
2023/12/23 09:20:48;;;;;;;0.00;0.00;;;;;;;;;;5036181;28;20037;-63
2023/12/23 09:23:14;;;;;;;0.10;0.10;;;;;;;;;;5046450;28;20078;-66
2023/12/23 09:25:40;;;;;;;0.00;0.00;;;;;;;;;;5045021;28;20052;-67
2023/12/23 09:28:06;;;;;;;0.00;0.00;;;;;;;;;;5040534;28;20090;-67
2023/12/23 09:30:32;;;;;;;0.15;0.03;;;;;;;;;;5044329;28;20044;-66
2023/12/23 09:32:58;;;;;;;0.00;0.00;;;;;;;;;;5047832;28;20033;-66
2023/12/23 09:35:24;;;;;;;0.10;0.10;;;;;;;;;;5039132;28;20081;-67
2023/12/23 09:37:50;;;;;;;0.08;0.08;;;;;;;;;;5047575;28;20103;-67
2023/12/23 09:40:16;;;;;;;0.10;0.10;;;;;;;;;;5042653;28;20064;-66
2023/12/23 09:42:42;;;;;;;0.10;0.10;;;;;;;;;;5046488;28;20037;-67
2023/12/23 09:45:09;;;;;;;0.05;0.05;;;;;;;;;;5045926;28;20074;-67
2023/12/23 09:47:35;;;;;;;0.08;0.08;;;;;;;;;;5047323;28;20045;-69
2023/12/23 09:50:01;;;;;;;0.20;0.20;;;;;;;;;;5042174;28;20049;-69
2023/12/23 09:52:28;;;;;;;0.00;0.00;;;;;;;;;;5050095;28;20127;-69
2023/12/23 09:54:57;;;;;;;0.00;0.00;;;;;;;;;;5045343;28;20094;-69
2023/12/23 09:57:24;;;;;;;0.05;0.00;;;;;;;;;;5046875;28;20049;-69
2023/12/23 09:59:51;;;;;;;0.10;0.10;;;;;;;;;;5046816;28;20049;-70
2023/12/23 10:02:17;;;;;;;0.10;0.10;;;;;;;;;;5047612;28;20153;-69
2023/12/23 10:04:44;;;;;;;0.30;0.30;;;;;;;;;;5049285;28;20068;-69
2023/12/23 10:07:09;;;;;;;0.22;0.22;;;;;;;;;;5048317;28;20397;-70
2023/12/23 10:09:35;;;;;;;0.50;0.40;;;;;;;;;;5049224;28;20095;-69
2023/12/23 10:12:02;;;;;;;0.40;0.30;;;;;;;;;;5047997;28;20037;-69
2023/12/23 10:14:28;;;;;;;0.38;0.38;;;;;;;;;;5048387;28;20783;-69
2023/12/23 10:16:55;;;;;;;0.10;0.10;;;;;;;;;;5047837;28;20037;-69
2023/12/23 10:19:21;;;;;;;0.30;0.30;;;;;;;;;;5039001;28;20104;-69
2023/12/23 10:21:48;;;;;;;0.20;0.20;;;;;;;;;;5047922;28;20127;-69
2023/12/23 10:24:15;;;;;;;0.05;0.00;;;;;;;;;;5047796;28;20712;-69
2023/12/23 10:26:41;;;;;;;0.10;0.10;;;;;;;;;;5047793;28;20052;-69
2023/12/23 10:29:09;;;;;;;0.10;0.10;;;;;;;;;;5047567;28;20068;-69
2023/12/23 10:31:36;;;;;;;0.10;0.10;;;;;;;;;;5047247;28;20114;-69
2023/12/23 10:34:11;;;;;;;0.10;0.10;;;;;;;;;;5037802;28;20083;-69
2023/12/23 10:36:41;;;;;;;0.10;0.10;;;;;;;;;;5042716;28;20048;-69
2023/12/23 10:39:28;;;;;;;0.20;0.20;;;;;;;;;;5047255;28;20525;-69
2023/12/23 10:41:58;;;;;;;0.10;0.10;;;;;;;;;;5046974;28;20071;-69
2023/12/23 10:44:25;;;;;;;0.25;0.25;;;;;;;;;;5036666;28;20033;-69
2023/12/23 10:46:52;;;;;;;0.20;0.20;;;;;;;;;;5048510;28;20115;-69
2023/12/23 10:49:18;;;;;;;0.20;0.20;;;;;;;;;;5045498;28;20063;-69
2023/12/23 10:51:45;;;;;;;0.20;0.20;;;;;;;;;;5048649;28;20111;-69
2023/12/23 10:54:12;;;;;;;0.30;0.30;;;;;;;;;;5048446;28;20593;-69
2023/12/23 10:56:39;;;;;;;0.47;0.30;;;;;;;;;;5042017;28;20045;-69
2023/12/23 10:59:06;;;;;;;0.40;0.25;;;;;;;;;;5044384;28;20564;-69
2023/12/23 11:01:33;;;;;;;0.25;0.25;;;;;;;;;;5046106;28;20045;-69
2023/12/23 11:04:00;;;;;;;0.30;0.30;;;;;;;;;;5040659;28;20071;-69
2023/12/23 11:06:27;;;;;;;0.20;0.20;;;;;;;;;;5045148;28;20049;-69
2023/12/23 11:08:53;;;;;;;0.38;0.22;;;;;;;;;;5037039;28;20551;-69
2023/12/23 11:11:19;;;;;;;0.13;0.10;;;;;;;;;;5036470;28;20044;-69
2023/12/23 11:13:45;;;;;;;0.10;0.10;;;;;;;;;;5045768;28;20041;-69
2023/12/23 11:16:12;;;;;;;0.10;0.10;;;;;;;;;;5036289;28;20132;-69
2023/12/23 11:18:40;;;;;;;0.30;0.30;;;;;;;;;;5040741;28;20056;-68
2023/12/23 11:21:18;;;;;;;0.10;0.10;;;;;;;;;;5042489;28;20119;-69
2023/12/23 11:23:45;;;;;;;0.13;0.13;;;;;;;;;;5044403;28;20493;-69
2023/12/23 11:26:30;;;;;;;0.10;0.10;;;;;;;;;;5046100;28;20103;-69
2023/12/23 11:28:56;;;;;;;0.00;0.00;;;;;;;;;;5046930;28;20566;-69
2023/12/23 11:31:22;;;;;;;0.45;0.10;;;;;;;;;;5046494;28;20121;-69
2023/12/23 11:33:48;;;;;;;0.10;0.10;;;;;;;;;;5038200;28;20042;-65
2023/12/23 11:36:14;;;;;;;0.20;0.20;;;;;;;;;;5036877;28;20095;-67
2023/12/23 11:38:47;;;;;;;0.00;0.00;;;;;;;;;;5031862;28;20505;-67
2023/12/23 11:41:13;;;;;;;0.00;0.00;;;;;;;;;;5038461;28;20601;-67
2023/12/23 11:43:43;;;;;;;0.10;0.10;;;;;;;;;;5045946;28;20562;-67
2023/12/23 11:46:09;;;;;;;0.20;0.13;;;;;;;;;;5045124;28;20508;-67
2023/12/23 11:48:36;;;;;;;0.13;0.00;;;;;;;;;;5045687;28;20036;-67
2023/12/23 11:51:02;;;;;;;0.00;0.00;;;;;;;;;;5044686;28;20094;-67
2023/12/23 11:53:29;;;;;;;0.00;0.00;;;;;;;;;;5044702;28;20729;-67
2023/12/23 11:55:55;;;;;;;0.00;0.00;;;;;;;;;;5044534;28;22007;-67
2023/12/23 11:58:22;;;;;;;0.00;0.00;;;;;;;;;;5044379;28;20049;-67
2023/12/23 12:00:52;;;;;;;0.00;0.00;;;;;;;;;;5045274;28;20107;-67
2023/12/23 12:03:18;;;;;;;0.00;0.00;;;;;;;;;;5044646;28;20059;-67
2023/12/23 12:05:44;;;;;;;0.00;0.00;;;;;;;;;;5046086;28;20118;-67
2023/12/23 12:08:10;;;;;;;0.00;0.00;;;;;;;;;;5045519;28;20129;-67
2023/12/23 12:10:36;;;;;;;0.00;0.00;;;;;;;;;;5044838;28;20033;-67
2023/12/23 12:13:02;;;;;;;0.10;0.10;;;;;;;;;;5045328;28;20058;-67
2023/12/23 12:15:28;;;;;;;0.00;0.00;;;;;;;;;;5046030;28;20560;-67
2023/12/23 12:17:54;;;;;;;0.08;0.08;;;;;;;;;;5045057;28;20143;-67
2023/12/23 12:20:22;;;;;;;0.10;0.10;;;;;;;;;;5043910;28;20149;-67
2023/12/23 12:22:48;;;;;;;0.10;0.10;;;;;;;;;;5044168;28;20045;-66
2023/12/23 12:25:15;;;;;;;0.10;0.10;;;;;;;;;;5046437;28;20051;-66
2023/12/23 12:27:42;;;;;;;0.20;0.20;;;;;;;;;;5040829;28;20053;-66
2023/12/23 12:30:11;;;;;;;0.10;0.10;;;;;;;;;;5039360;28;20047;-66
2023/12/23 12:32:42;;;;;;;0.20;0.20;;;;;;;;;;5069435;28;20084;-66
2023/12/23 12:35:10;;;;;;;0.30;0.20;;;;;;;;;;5027280;28;20061;-66
2023/12/23 12:37:36;;;;;;;0.10;0.10;;;;;;;;;;5027951;28;20512;-67
2023/12/23 12:40:03;;;;;;;0.10;0.10;;;;;;;;;;5042031;28;20067;-66
2023/12/23 12:42:29;;;;;;;0.10;0.10;;;;;;;;;;5045409;28;20171;-66
2023/12/23 12:45:02;;;;;;;0.10;0.10;;;;;;;;;;5042778;28;20116;-66
2023/12/23 12:47:31;;;;;;;0.10;0.10;;;;;;;;;;5039991;28;20394;-67
2023/12/23 12:50:03;;;;;;;0.10;0.10;;;;;;;;;;5043793;28;20053;-67
2023/12/23 12:52:30;;;;;;;0.10;0.10;;;;;;;;;;5040048;28;20060;-66
2023/12/23 12:54:59;;;;;;;0.00;0.00;;;;;;;;;;5043492;28;20511;-66
2023/12/23 12:57:28;;;;;;;0.10;0.00;;;;;;;;;;5039310;28;20052;-66
2023/12/23 12:59:54;;;;;;;0.10;0.10;;;;;;;;;;5041779;28;20036;-66
2023/12/23 13:02:21;;;;;;;0.03;0.03;;;;;;;;;;5037763;28;20577;-66
2023/12/23 13:04:47;;;;;;;0.10;0.10;;;;;;;;;;5040513;28;20033;-66
2023/12/23 13:07:13;;;;;;;0.08;0.08;;;;;;;;;;5044101;28;20390;-66
2023/12/23 13:09:39;;;;;;;0.08;0.08;;;;;;;;;;5044992;28;20037;-66
2023/12/23 13:12:08;;;;;;;0.25;0.25;;;;;;;;;;5048007;28;20045;-65
2023/12/23 13:14:34;;;;;;;0.10;0.10;;;;;;;;;;5049764;28;20041;-66
2023/12/23 13:17:00;;;;;;;0.20;0.20;;;;;;;;;;5047380;28;20128;-67
2023/12/23 13:19:26;;;;;;;0.22;0.17;;;;;;;;;;5041319;28;20128;-67
2023/12/23 13:21:52;;;;;;;0.10;0.10;;;;;;;;;;5046037;28;20124;-66
2023/12/23 13:24:18;;;;;;;0.05;0.05;;;;;;;;;;5049202;28;20048;-66
2023/12/23 13:26:44;;;;;;;0.10;0.10;;;;;;;;;;5049776;28;20041;-66
2023/12/23 13:29:10;;;;;;;0.10;0.10;;;;;;;;;;5050092;28;20048;-66
2023/12/23 13:31:36;;;;;;;0.10;0.10;;;;;;;;;;5049029;28;20413;-66
2023/12/23 13:34:03;;;;;;;0.10;0.10;;;;;;;;;;5049755;28;20108;-66
2023/12/23 13:36:29;;;;;;;0.17;0.17;;;;;;;;;;5050137;28;20052;-66
2023/12/23 13:38:55;;;;;;;0.28;0.20;;;;;;;;;;5049132;28;20106;-66
2023/12/23 13:41:28;;;;;;;0.45;0.30;;;;;;;;;;5049414;28;20040;-66
2023/12/23 13:43:54;;;;;;;0.43;0.43;;;;;;;;;;5049512;28;20053;-66
2023/12/23 13:46:20;;;;;;;0.52;0.50;;;;;;;;;;5048727;28;20767;-66
2023/12/23 13:48:46;;;;;;;0.73;0.73;;;;;;;;;;5049183;28;20047;-66
2023/12/23 13:51:12;;;;;;;0.70;0.70;;;;;;;;;;5048371;28;20565;-66
2023/12/23 13:53:38;;;;;;;0.93;0.90;;;;;;;;;;5047330;28;20060;-66
2023/12/23 13:56:08;;;;;;;1.42;0.98;;;;;;;;;;5049323;28;20490;-66
2023/12/23 13:58:34;;;;;;;5.20;1.20;;;;;;;;;;5042442;28;20065;-66
2023/12/23 14:01:01;;;;;;;4.07;1.52;;;;;;;;;;5048468;28;20051;-65
2023/12/23 14:03:27;;;;;;;2.50;1.50;;;;;;;;;;5049597;28;20578;-66
2023/12/23 14:05:53;;;;;;;2.65;1.40;;;;;;;;;;5048864;28;20029;-66
2023/12/23 14:08:19;;;;;;;9.27;2.22;;;;;;;;;;5047718;28;20670;-66
2023/12/23 14:10:45;;;;;;;4.15;2.40;;;;;;;;;;5047765;28;20116;-66
2023/12/23 14:13:11;;;;;;;15.40;5.00;;;;;;;;;;5048479;28;20041;-66
2023/12/23 14:15:37;;;;;;;6.95;2.95;;;;;;;;;;5044962;28;20424;-66
2023/12/23 14:18:04;;;;;;;7.25;2.80;;;;;;;;;;5043442;28;20525;-66
2023/12/23 14:20:30;;;;;;;10.82;3.40;;;;;;;;;;5044298;28;20032;-66
2023/12/23 14:22:56;;;;;;;9.35;3.22;;;;;;;;;;5041708;28;20071;-66
2023/12/23 14:25:23;;;;;;;9.15;2.58;;;;;;;;;;5045835;28;20068;-66
2023/12/23 14:27:49;;;;;;;7.75;2.50;;;;;;;;;;5034352;28;20201;-66
2023/12/23 14:30:15;;;;;;;15.50;3.80;;;;;;;;;;5037455;28;20033;-66
2023/12/23 14:32:41;;;;;;;10.55;3.05;;;;;;;;;;5045693;28;20144;-66
2023/12/23 14:35:09;;;;;;;16.10;3.60;;;;;;;;;;5033722;28;20131;-66
2023/12/23 14:37:35;;;;;;;13.80;2.50;;;;;;;;;;5040194;28;20064;-66
2023/12/23 14:40:01;;;;;;;10.18;2.92;;;;;;;;;;5038841;28;20044;-66